<?xml version="1.0" encoding="UTF-8" standalone="no" ?><gpx xmlns="http://www.topografix.com/GPX/1/1" xmlns:gpxx="http://www.garmin.com/xmlschemas/GpxExtensions/v3" xmlns:gpxtrkx="http://www.garmin.com/xmlschemas/TrackStatsExtension/v1" xmlns:wptx1="http://www.garmin.com/xmlschemas/WaypointExtension/v1" xmlns:gpxtpx="http://www.garmin.com/xmlschemas/TrackPointExtension/v1" creator="GPSMAP 64" version="1.1" xmlns:xsi="http://www.w3.org/2001/XMLSchema-instance" xsi:schemaLocation="http://www.topografix.com/GPX/1/1 http://www.topografix.com/GPX/1/1/gpx.xsd http://www.garmin.com/xmlschemas/GpxExtensions/v3 http://www8.garmin.com/xmlschemas/GpxExtensionsv3.xsd http://www.garmin.com/xmlschemas/TrackStatsExtension/v1 http://www8.garmin.com/xmlschemas/TrackStatsExtension.xsd http://www.garmin.com/xmlschemas/WaypointExtension/v1 http://www8.garmin.com/xmlschemas/WaypointExtensionv1.xsd http://www.garmin.com/xmlschemas/TrackPointExtension/v1 http://www.garmin.com/xmlschemas/TrackPointExtensionv1.xsd"><metadata><link href="http://www.garmin.com"><text>Garmin International</text></link><time>2026-04-26T11:00:14Z</time></metadata><trk><name>2026-04-26 14:00:09</name><extensions><gpxx:TrackExtension><gpxx:DisplayColor>Red</gpxx:DisplayColor></gpxx:TrackExtension><gpxtrkx:TrackStatsExtension><gpxtrkx:Distance>6491.000</gpxtrkx:Distance><gpxtrkx:TotalElapsedTime>9645</gpxtrkx:TotalElapsedTime><gpxtrkx:MovingTime>8993</gpxtrkx:MovingTime><gpxtrkx:StoppedTime>649</gpxtrkx:StoppedTime><gpxtrkx:MovingSpeed>0.722</gpxtrkx:MovingSpeed><gpxtrkx:MaxSpeed>101.419</gpxtrkx:MaxSpeed><gpxtrkx:MaxElevation>4267.865</gpxtrkx:MaxElevation><gpxtrkx:MinElevation>-1461.666</gpxtrkx:MinElevation><gpxtrkx:Ascent>199160.000</gpxtrkx:Ascent><gpxtrkx:Descent>199810.594</gpxtrkx:Descent><gpxtrkx:AvgAscentRate>0.069</gpxtrkx:AvgAscentRate><gpxtrkx:MaxAscentRate>18.177</gpxtrkx:MaxAscentRate><gpxtrkx:AvgDescentRate>0.072</gpxtrkx:AvgDescentRate><gpxtrkx:MaxDescentRate>-16.187</gpxtrkx:MaxDescentRate></gpxtrkx:TrackStatsExtension></extensions><trkseg><trkpt lat="59.0612857137" lon="30.0065935962"><ele>90.59</ele><time>2026-04-26T08:19:29Z</time></trkpt><trkpt lat="59.0612759907" lon="30.0066391937"><ele>90.47</ele><time>2026-04-26T08:20:02Z</time></trkpt><trkpt lat="59.0613442194" lon="30.0066626631"><ele>90.01</ele><time>2026-04-26T08:20:23Z</time></trkpt><trkpt lat="59.0613899007" lon="30.0067391898"><ele>89.43</ele><time>2026-04-26T08:20:40Z</time></trkpt><trkpt lat="59.0614451375" lon="30.0067017227"><ele>88.36</ele><time>2026-04-26T08:20:59Z</time></trkpt><trkpt lat="59.0614620689" lon="30.0066986214"><ele>87.92</ele><time>2026-04-26T08:21:02Z</time></trkpt><trkpt lat="59.0616026334" lon="30.0067500025"><ele>84.84</ele><time>2026-04-26T08:21:21Z</time></trkpt><trkpt lat="59.0616712812" lon="30.0066138804"><ele>82.02</ele><time>2026-04-26T08:21:42Z</time></trkpt><trkpt lat="59.0616903920" lon="30.0065334979"><ele>80.35</ele><time>2026-04-26T08:22:00Z</time></trkpt><trkpt lat="59.0617206506" lon="30.0064612459"><ele>80.07</ele><time>2026-04-26T08:22:20Z</time></trkpt><trkpt lat="59.0618139412" lon="30.0064231921"><ele>79.50</ele><time>2026-04-26T08:22:43Z</time></trkpt><trkpt lat="59.0620115027" lon="30.0063666981"><ele>77.56</ele><time>2026-04-26T08:23:03Z</time></trkpt><trkpt lat="59.0620747022" lon="30.0063454080"><ele>75.98</ele><time>2026-04-26T08:23:19Z</time></trkpt><trkpt lat="59.0621683281" lon="30.0062009040"><ele>74.82</ele><time>2026-04-26T08:23:35Z</time></trkpt><trkpt lat="59.0623731818" lon="30.0061692204"><ele>73.38</ele><time>2026-04-26T08:23:56Z</time></trkpt><trkpt lat="59.0624554083" lon="30.0060615130"><ele>72.87</ele><time>2026-04-26T08:24:23Z</time></trkpt><trkpt lat="59.0625011735" lon="30.0061297417"><ele>73.03</ele><time>2026-04-26T08:24:43Z</time></trkpt><trkpt lat="59.0625488665" lon="30.0062946975"><ele>74.53</ele><time>2026-04-26T08:25:05Z</time></trkpt><trkpt lat="59.0625793766" lon="30.0065382756"><ele>75.49</ele><time>2026-04-26T08:25:23Z</time></trkpt><trkpt lat="59.0626397263" lon="30.0065789279"><ele>74.32</ele><time>2026-04-26T08:25:52Z</time></trkpt><trkpt lat="59.0627620183" lon="30.0065824483"><ele>73.82</ele><time>2026-04-26T08:26:09Z</time></trkpt><trkpt lat="59.0628417302" lon="30.0065964460"><ele>71.89</ele><time>2026-04-26T08:26:27Z</time></trkpt><trkpt lat="59.0628477652" lon="30.0065985415"><ele>71.88</ele><time>2026-04-26T08:26:28Z</time></trkpt><trkpt lat="59.0630484279" lon="30.0065234397"><ele>72.85</ele><time>2026-04-26T08:26:47Z</time></trkpt><trkpt lat="59.0631914232" lon="30.0064013992"><ele>70.91</ele><time>2026-04-26T08:27:04Z</time></trkpt><trkpt lat="59.0632687043" lon="30.0063048396"><ele>70.34</ele><time>2026-04-26T08:27:22Z</time></trkpt><trkpt lat="59.0633307304" lon="30.0062646903"><ele>71.85</ele><time>2026-04-26T08:27:51Z</time></trkpt><trkpt lat="59.0633471590" lon="30.0062250439"><ele>72.75</ele><time>2026-04-26T08:28:20Z</time></trkpt><trkpt lat="59.0634496696" lon="30.0062416401"><ele>72.55</ele><time>2026-04-26T08:28:34Z</time></trkpt><trkpt lat="59.0635054093" lon="30.0062560569"><ele>72.67</ele><time>2026-04-26T08:28:39Z</time></trkpt><trkpt lat="59.0636562835" lon="30.0061922707"><ele>74.86</ele><time>2026-04-26T08:28:57Z</time></trkpt><trkpt lat="59.0637678467" lon="30.0061620958"><ele>74.58</ele><time>2026-04-26T08:29:12Z</time></trkpt><trkpt lat="59.0638403501" lon="30.0061664544"><ele>73.71</ele><time>2026-04-26T08:29:23Z</time></trkpt><trkpt lat="59.0638850257" lon="30.0061734952"><ele>73.55</ele><time>2026-04-26T08:29:28Z</time></trkpt><trkpt lat="59.0639794897" lon="30.0062241219"><ele>75.21</ele><time>2026-04-26T08:29:52Z</time></trkpt><trkpt lat="59.0640011989" lon="30.0062629301"><ele>74.07</ele><time>2026-04-26T08:30:14Z</time></trkpt><trkpt lat="59.0640631411" lon="30.0063341763"><ele>74.06</ele><time>2026-04-26T08:30:42Z</time></trkpt><trkpt lat="59.0640521608" lon="30.0066680275"><ele>74.21</ele><time>2026-04-26T08:31:03Z</time></trkpt><trkpt lat="59.0640566032" lon="30.0067918282"><ele>72.87</ele><time>2026-04-26T08:31:09Z</time></trkpt><trkpt lat="59.0640833415" lon="30.0069291238"><ele>72.10</ele><time>2026-04-26T08:31:30Z</time></trkpt><trkpt lat="59.0641351417" lon="30.0070118532"><ele>72.62</ele><time>2026-04-26T08:31:51Z</time></trkpt><trkpt lat="59.0641715191" lon="30.0071447063"><ele>74.55</ele><time>2026-04-26T08:32:09Z</time></trkpt><trkpt lat="59.0643004328" lon="30.0072038826"><ele>76.08</ele><time>2026-04-26T08:32:29Z</time></trkpt><trkpt lat="59.0643828269" lon="30.0073431898"><ele>73.76</ele><time>2026-04-26T08:32:45Z</time></trkpt><trkpt lat="59.0644830745" lon="30.0073498953"><ele>72.33</ele><time>2026-04-26T08:33:01Z</time></trkpt><trkpt lat="59.0646173526" lon="30.0072202273"><ele>71.57</ele><time>2026-04-26T08:33:18Z</time></trkpt><trkpt lat="59.0647412371" lon="30.0071818382"><ele>69.79</ele><time>2026-04-26T08:33:36Z</time></trkpt><trkpt lat="59.0649391338" lon="30.0070667546"><ele>71.62</ele><time>2026-04-26T08:33:59Z</time></trkpt><trkpt lat="59.0650693048" lon="30.0068412814"><ele>70.32</ele><time>2026-04-26T08:34:21Z</time></trkpt><trkpt lat="59.0651004855" lon="30.0067313947"><ele>69.94</ele><time>2026-04-26T08:34:40Z</time></trkpt><trkpt lat="59.0652443189" lon="30.0066445582"><ele>70.84</ele><time>2026-04-26T08:35:04Z</time></trkpt><trkpt lat="59.0653625038" lon="30.0065992121"><ele>69.48</ele><time>2026-04-26T08:35:25Z</time></trkpt><trkpt lat="59.0653588995" lon="30.0065721385"><ele>73.14</ele><time>2026-04-26T08:35:59Z</time></trkpt><trkpt lat="59.0653546248" lon="30.0065769162"><ele>73.51</ele><time>2026-04-26T08:36:28Z</time></trkpt><trkpt lat="59.0654863045" lon="30.0065362640"><ele>73.91</ele><time>2026-04-26T08:36:49Z</time></trkpt><trkpt lat="59.0656170622" lon="30.0065072626"><ele>75.71</ele><time>2026-04-26T08:37:07Z</time></trkpt><trkpt lat="59.0656993724" lon="30.0064268801"><ele>76.59</ele><time>2026-04-26T08:37:27Z</time></trkpt><trkpt lat="59.0657816827" lon="30.0063549634"><ele>77.00</ele><time>2026-04-26T08:37:46Z</time></trkpt><trkpt lat="59.0658897255" lon="30.0063871499"><ele>77.07</ele><time>2026-04-26T08:38:05Z</time></trkpt><trkpt lat="59.0660058148" lon="30.0063506886"><ele>77.12</ele><time>2026-04-26T08:38:25Z</time></trkpt><trkpt lat="59.0661510732" lon="30.0064556301"><ele>74.43</ele><time>2026-04-26T08:38:47Z</time></trkpt><trkpt lat="59.0662640613" lon="30.0064554624"><ele>73.87</ele><time>2026-04-26T08:39:09Z</time></trkpt><trkpt lat="59.0662685037" lon="30.0064402912"><ele>75.51</ele><time>2026-04-26T08:39:39Z</time></trkpt><trkpt lat="59.0663169511" lon="30.0063165743"><ele>75.67</ele><time>2026-04-26T08:40:00Z</time></trkpt><trkpt lat="59.0663446113" lon="30.0062212721"><ele>75.73</ele><time>2026-04-26T08:40:17Z</time></trkpt><trkpt lat="59.0664124209" lon="30.0060814619"><ele>76.01</ele><time>2026-04-26T08:40:32Z</time></trkpt><trkpt lat="59.0664145164" lon="30.0059893448"><ele>77.24</ele><time>2026-04-26T08:40:46Z</time></trkpt><trkpt lat="59.0663727745" lon="30.0059378799"><ele>79.52</ele><time>2026-04-26T08:41:16Z</time></trkpt><trkpt lat="59.0664787218" lon="30.0058632810"><ele>80.14</ele><time>2026-04-26T08:41:40Z</time></trkpt><trkpt lat="59.0665089805" lon="30.0057725888"><ele>80.07</ele><time>2026-04-26T08:41:50Z</time></trkpt><trkpt lat="59.0665426757" lon="30.0055430923"><ele>78.95</ele><time>2026-04-26T08:42:08Z</time></trkpt><trkpt lat="59.0665354673" lon="30.0052145217"><ele>76.72</ele><time>2026-04-26T08:42:30Z</time></trkpt><trkpt lat="59.0665914584" lon="30.0050509069"><ele>74.76</ele><time>2026-04-26T08:42:53Z</time></trkpt><trkpt lat="59.0666606091" lon="30.0049328897"><ele>71.72</ele><time>2026-04-26T08:43:13Z</time></trkpt><trkpt lat="59.0667704120" lon="30.0047580432"><ele>69.12</ele><time>2026-04-26T08:43:33Z</time></trkpt><trkpt lat="59.0668632835" lon="30.0048103463"><ele>67.76</ele><time>2026-04-26T08:43:54Z</time></trkpt><trkpt lat="59.0668924525" lon="30.0047718734"><ele>68.29</ele><time>2026-04-26T08:44:01Z</time></trkpt><trkpt lat="59.0670488589" lon="30.0046656746"><ele>67.19</ele><time>2026-04-26T08:44:23Z</time></trkpt><trkpt lat="59.0671069454" lon="30.0046855398"><ele>69.59</ele><time>2026-04-26T08:44:50Z</time></trkpt><trkpt lat="59.0670457575" lon="30.0048025511"><ele>69.56</ele><time>2026-04-26T08:45:13Z</time></trkpt><trkpt lat="59.0671069454" lon="30.0047018845"><ele>66.08</ele><time>2026-04-26T08:45:39Z</time></trkpt><trkpt lat="59.0672139823" lon="30.0047037285"><ele>65.31</ele><time>2026-04-26T08:45:59Z</time></trkpt><trkpt lat="59.0673103742" lon="30.0046917424"><ele>65.14</ele><time>2026-04-26T08:46:15Z</time></trkpt><trkpt lat="59.0674009826" lon="30.0045645051"><ele>64.83</ele><time>2026-04-26T08:46:37Z</time></trkpt><trkpt lat="59.0675391164" lon="30.0044749863"><ele>64.35</ele><time>2026-04-26T08:46:56Z</time></trkpt><trkpt lat="59.0676956903" lon="30.0044145528"><ele>62.27</ele><time>2026-04-26T08:47:16Z</time></trkpt><trkpt lat="59.0678928327" lon="30.0043160655"><ele>58.67</ele><time>2026-04-26T08:47:37Z</time></trkpt><trkpt lat="59.0681001171" lon="30.0042801071"><ele>57.92</ele><time>2026-04-26T08:47:55Z</time></trkpt><trkpt lat="59.0681800805" lon="30.0042551290"><ele>55.43</ele><time>2026-04-26T08:48:08Z</time></trkpt><trkpt lat="59.0681946650" lon="30.0042011496"><ele>53.44</ele><time>2026-04-26T08:48:28Z</time></trkpt><trkpt lat="59.0683480538" lon="30.0041622575"><ele>52.38</ele><time>2026-04-26T08:48:47Z</time></trkpt><trkpt lat="59.0685321204" lon="30.0041039195"><ele>54.57</ele><time>2026-04-26T08:49:05Z</time></trkpt><trkpt lat="59.0685526561" lon="30.0041138940"><ele>55.24</ele><time>2026-04-26T08:49:21Z</time></trkpt><trkpt lat="59.0685917996" lon="30.0042949431"><ele>63.20</ele><time>2026-04-26T08:49:47Z</time></trkpt><trkpt lat="59.0686767083" lon="30.0042143930"><ele>64.22</ele><time>2026-04-26T08:50:01Z</time></trkpt><trkpt lat="59.0688209608" lon="30.0041114632"><ele>64.96</ele><time>2026-04-26T08:50:16Z</time></trkpt><trkpt lat="59.0690010041" lon="30.0039974693"><ele>66.06</ele><time>2026-04-26T08:50:33Z</time></trkpt><trkpt lat="59.0691666305" lon="30.0039710663"><ele>65.01</ele><time>2026-04-26T08:50:50Z</time></trkpt><trkpt lat="59.0692706499" lon="30.0039111357"><ele>65.29</ele><time>2026-04-26T08:51:09Z</time></trkpt><trkpt lat="59.0693871584" lon="30.0039030053"><ele>65.24</ele><time>2026-04-26T08:51:25Z</time></trkpt><trkpt lat="59.0695264656" lon="30.0038248021"><ele>65.17</ele><time>2026-04-26T08:51:44Z</time></trkpt><trkpt lat="59.0696744062" lon="30.0038115587"><ele>64.27</ele><time>2026-04-26T08:52:06Z</time></trkpt><trkpt lat="59.0697454009" lon="30.0037436653"><ele>68.08</ele><time>2026-04-26T08:52:37Z</time></trkpt><trkpt lat="59.0696904995" lon="30.0038644485"><ele>67.50</ele><time>2026-04-26T08:53:06Z</time></trkpt><trkpt lat="59.0696842130" lon="30.0039636064"><ele>67.48</ele><time>2026-04-26T08:53:25Z</time></trkpt><trkpt lat="59.0697233565" lon="30.0040776003"><ele>67.49</ele><time>2026-04-26T08:53:42Z</time></trkpt><trkpt lat="59.0697065927" lon="30.0042315759"><ele>67.58</ele><time>2026-04-26T08:54:01Z</time></trkpt><trkpt lat="59.0696926787" lon="30.0045092683"><ele>67.68</ele><time>2026-04-26T08:54:26Z</time></trkpt><trkpt lat="59.0696914215" lon="30.0046712067"><ele>67.91</ele><time>2026-04-26T08:54:41Z</time></trkpt><trkpt lat="59.0696568042" lon="30.0048830174"><ele>68.69</ele><time>2026-04-26T08:54:50Z</time></trkpt><trkpt lat="59.0696869791" lon="30.0052213110"><ele>69.60</ele><time>2026-04-26T08:55:11Z</time></trkpt><trkpt lat="59.0697356779" lon="30.0054681581"><ele>70.12</ele><time>2026-04-26T08:55:33Z</time></trkpt><trkpt lat="59.0697607398" lon="30.0055534858"><ele>69.22</ele><time>2026-04-26T08:56:09Z</time></trkpt><trkpt lat="59.0697687026" lon="30.0055465288"><ele>69.96</ele><time>2026-04-26T08:56:11Z</time></trkpt><trkpt lat="59.0698547009" lon="30.0054373126"><ele>76.87</ele><time>2026-04-26T08:56:36Z</time></trkpt><trkpt lat="59.0698125400" lon="30.0054767076"><ele>76.38</ele><time>2026-04-26T08:56:59Z</time></trkpt><trkpt lat="59.0697936807" lon="30.0055168569"><ele>75.74</ele><time>2026-04-26T08:57:25Z</time></trkpt><trkpt lat="59.0697808564" lon="30.0057821441"><ele>74.98</ele><time>2026-04-26T08:57:54Z</time></trkpt><trkpt lat="59.0697948541" lon="30.0060215313"><ele>74.10</ele><time>2026-04-26T08:58:08Z</time></trkpt><trkpt lat="59.0698239394" lon="30.0061799493"><ele>73.53</ele><time>2026-04-26T08:58:25Z</time></trkpt><trkpt lat="59.0697875619" lon="30.0064742379"><ele>72.68</ele><time>2026-04-26T08:58:43Z</time></trkpt><trkpt lat="59.0697102807" lon="30.0067768246"><ele>71.03</ele><time>2026-04-26T08:59:03Z</time></trkpt><trkpt lat="59.0697721392" lon="30.0070818420"><ele>69.92</ele><time>2026-04-26T08:59:22Z</time></trkpt><trkpt lat="59.0698484983" lon="30.0073134340"><ele>69.76</ele><time>2026-04-26T08:59:40Z</time></trkpt><trkpt lat="59.0699153021" lon="30.0074518193"><ele>69.77</ele><time>2026-04-26T08:59:57Z</time></trkpt><trkpt lat="59.0699568763" lon="30.0075057987"><ele>70.51</ele><time>2026-04-26T09:00:22Z</time></trkpt><trkpt lat="59.0699717123" lon="30.0075346325"><ele>70.57</ele><time>2026-04-26T09:00:53Z</time></trkpt><trkpt lat="59.0699967742" lon="30.0075249095"><ele>72.26</ele><time>2026-04-26T09:01:25Z</time></trkpt><trkpt lat="59.0700019710" lon="30.0076465309"><ele>72.72</ele><time>2026-04-26T09:01:47Z</time></trkpt><trkpt lat="59.0699297190" lon="30.0079854112"><ele>72.81</ele><time>2026-04-26T09:02:05Z</time></trkpt><trkpt lat="59.0699393582" lon="30.0083888322"><ele>71.96</ele><time>2026-04-26T09:02:27Z</time></trkpt><trkpt lat="59.0699513443" lon="30.0085350964"><ele>70.61</ele><time>2026-04-26T09:02:43Z</time></trkpt><trkpt lat="59.0699693654" lon="30.0086293090"><ele>70.47</ele><time>2026-04-26T09:02:54Z</time></trkpt><trkpt lat="59.0700193215" lon="30.0090552773"><ele>71.36</ele><time>2026-04-26T09:03:15Z</time></trkpt><trkpt lat="59.0700957645" lon="30.0092502404"><ele>69.71</ele><time>2026-04-26T09:03:32Z</time></trkpt><trkpt lat="59.0701401047" lon="30.0093069021"><ele>68.73</ele><time>2026-04-26T09:03:45Z</time></trkpt><trkpt lat="59.0701572876" lon="30.0093265157"><ele>69.73</ele><time>2026-04-26T09:04:06Z</time></trkpt><trkpt lat="59.0701671783" lon="30.0093289465"><ele>70.69</ele><time>2026-04-26T09:04:42Z</time></trkpt><trkpt lat="59.0701028891" lon="30.0092911441"><ele>72.72</ele><time>2026-04-26T09:05:18Z</time></trkpt><trkpt lat="59.0701649990" lon="30.0093309581"><ele>70.79</ele><time>2026-04-26T09:05:44Z</time></trkpt><trkpt lat="59.0701596346" lon="30.0096692517"><ele>72.15</ele><time>2026-04-26T09:06:17Z</time></trkpt><trkpt lat="59.0701597184" lon="30.0096927211"><ele>72.33</ele><time>2026-04-26T09:06:19Z</time></trkpt><trkpt lat="59.0701858699" lon="30.0097709242"><ele>72.63</ele><time>2026-04-26T09:06:25Z</time></trkpt><trkpt lat="59.0702751372" lon="30.0099556614"><ele>73.65</ele><time>2026-04-26T09:06:41Z</time></trkpt><trkpt lat="59.0702836029" lon="30.0100834016"><ele>73.59</ele><time>2026-04-26T09:06:52Z</time></trkpt><trkpt lat="59.0703200642" lon="30.0102948770"><ele>75.44</ele><time>2026-04-26T09:07:12Z</time></trkpt><trkpt lat="59.0703185555" lon="30.0103424024"><ele>75.84</ele><time>2026-04-26T09:07:16Z</time></trkpt><trkpt lat="59.0703182202" lon="30.0104470924"><ele>76.73</ele><time>2026-04-26T09:07:22Z</time></trkpt><trkpt lat="59.0702403523" lon="30.0107470807"><ele>78.01</ele><time>2026-04-26T09:07:42Z</time></trkpt><trkpt lat="59.0701824334" lon="30.0109559577"><ele>78.66</ele><time>2026-04-26T09:07:59Z</time></trkpt><trkpt lat="59.0701598022" lon="30.0111585483"><ele>79.58</ele><time>2026-04-26T09:08:17Z</time></trkpt><trkpt lat="59.0701537672" lon="30.0112092588"><ele>79.22</ele><time>2026-04-26T09:08:25Z</time></trkpt><trkpt lat="59.0701588802" lon="30.0113655813"><ele>79.32</ele><time>2026-04-26T09:08:58Z</time></trkpt><trkpt lat="59.0701583773" lon="30.0112955086"><ele>82.39</ele><time>2026-04-26T09:09:31Z</time></trkpt><trkpt lat="59.0701437928" lon="30.0114710256"><ele>80.78</ele><time>2026-04-26T09:10:01Z</time></trkpt><trkpt lat="59.0701421164" lon="30.0116856862"><ele>80.93</ele><time>2026-04-26T09:10:18Z</time></trkpt><trkpt lat="59.0701214131" lon="30.0118973292"><ele>81.41</ele><time>2026-04-26T09:10:34Z</time></trkpt><trkpt lat="59.0701196529" lon="30.0119086448"><ele>81.43</ele><time>2026-04-26T09:10:35Z</time></trkpt><trkpt lat="59.0700657573" lon="30.0123363733"><ele>81.70</ele><time>2026-04-26T09:10:55Z</time></trkpt><trkpt lat="59.0701302979" lon="30.0125037599"><ele>81.88</ele><time>2026-04-26T09:11:12Z</time></trkpt><trkpt lat="59.0702780709" lon="30.0124955457"><ele>81.11</ele><time>2026-04-26T09:11:31Z</time></trkpt><trkpt lat="59.0704127681" lon="30.0125903450"><ele>79.75</ele><time>2026-04-26T09:11:50Z</time></trkpt><trkpt lat="59.0704467986" lon="30.0126497727"><ele>79.67</ele><time>2026-04-26T09:12:09Z</time></trkpt><trkpt lat="59.0704408474" lon="30.0127817038"><ele>79.28</ele><time>2026-04-26T09:12:28Z</time></trkpt><trkpt lat="59.0704239998" lon="30.0128510222"><ele>79.09</ele><time>2026-04-26T09:12:36Z</time></trkpt><trkpt lat="59.0704956651" lon="30.0132229272"><ele>79.42</ele><time>2026-04-26T09:12:54Z</time></trkpt><trkpt lat="59.0705116745" lon="30.0134121906"><ele>80.84</ele><time>2026-04-26T09:13:13Z</time></trkpt><trkpt lat="59.0705039632" lon="30.0135280285"><ele>81.82</ele><time>2026-04-26T09:13:42Z</time></trkpt><trkpt lat="59.0704680048" lon="30.0135364104"><ele>81.35</ele><time>2026-04-26T09:14:06Z</time></trkpt><trkpt lat="59.0704675019" lon="30.0135105103"><ele>77.71</ele><time>2026-04-26T09:14:37Z</time></trkpt><trkpt lat="59.0704969224" lon="30.0136877038"><ele>77.32</ele><time>2026-04-26T09:14:51Z</time></trkpt><trkpt lat="59.0704928152" lon="30.0138234068"><ele>77.22</ele><time>2026-04-26T09:14:58Z</time></trkpt><trkpt lat="59.0704559349" lon="30.0140140112"><ele>77.13</ele><time>2026-04-26T09:15:12Z</time></trkpt><trkpt lat="59.0704543423" lon="30.0141122472"><ele>77.23</ele><time>2026-04-26T09:15:33Z</time></trkpt><trkpt lat="59.0705200564" lon="30.0140814018"><ele>76.55</ele><time>2026-04-26T09:15:54Z</time></trkpt><trkpt lat="59.0705356468" lon="30.0140985008"><ele>76.73</ele><time>2026-04-26T09:16:05Z</time></trkpt><trkpt lat="59.0704817511" lon="30.0142341200"><ele>76.61</ele><time>2026-04-26T09:16:33Z</time></trkpt><trkpt lat="59.0706003550" lon="30.0144404825"><ele>77.05</ele><time>2026-04-26T09:17:03Z</time></trkpt><trkpt lat="59.0706471261" lon="30.0145356171"><ele>77.47</ele><time>2026-04-26T09:17:20Z</time></trkpt><trkpt lat="59.0707033686" lon="30.0148756709"><ele>77.53</ele><time>2026-04-26T09:17:45Z</time></trkpt><trkpt lat="59.0707087331" lon="30.0151247811"><ele>77.58</ele><time>2026-04-26T09:18:05Z</time></trkpt><trkpt lat="59.0707295202" lon="30.0152704585"><ele>78.30</ele><time>2026-04-26T09:18:28Z</time></trkpt><trkpt lat="59.0707086492" lon="30.0153772440"><ele>79.10</ele><time>2026-04-26T09:18:46Z</time></trkpt><trkpt lat="59.0707189590" lon="30.0154181477"><ele>79.69</ele><time>2026-04-26T09:18:56Z</time></trkpt><trkpt lat="59.0706276800" lon="30.0154388510"><ele>80.43</ele><time>2026-04-26T09:19:26Z</time></trkpt><trkpt lat="59.0706451982" lon="30.0153866317"><ele>83.57</ele><time>2026-04-26T09:19:51Z</time></trkpt><trkpt lat="59.0707094036" lon="30.0155412778"><ele>83.95</ele><time>2026-04-26T09:20:21Z</time></trkpt><trkpt lat="59.0707129240" lon="30.0157482270"><ele>83.59</ele><time>2026-04-26T09:20:38Z</time></trkpt><trkpt lat="59.0706532449" lon="30.0162357185"><ele>82.44</ele><time>2026-04-26T09:21:00Z</time></trkpt><trkpt lat="59.0706277639" lon="30.0166809652"><ele>84.66</ele><time>2026-04-26T09:21:20Z</time></trkpt><trkpt lat="59.0706776362" lon="30.0168056041"><ele>84.54</ele><time>2026-04-26T09:21:39Z</time></trkpt><trkpt lat="59.0707444400" lon="30.0168250501"><ele>85.18</ele><time>2026-04-26T09:22:04Z</time></trkpt><trkpt lat="59.0707485471" lon="30.0168911833"><ele>84.24</ele><time>2026-04-26T09:22:25Z</time></trkpt><trkpt lat="59.0708586853" lon="30.0168666244"><ele>85.60</ele><time>2026-04-26T09:22:47Z</time></trkpt><trkpt lat="59.0709189512" lon="30.0169501081"><ele>88.21</ele><time>2026-04-26T09:23:19Z</time></trkpt><trkpt lat="59.0708285104" lon="30.0171623379"><ele>91.61</ele><time>2026-04-26T09:23:46Z</time></trkpt><trkpt lat="59.0708672348" lon="30.0172363501"><ele>91.67</ele><time>2026-04-26T09:24:00Z</time></trkpt><trkpt lat="59.0708481241" lon="30.0174507592"><ele>91.01</ele><time>2026-04-26T09:24:22Z</time></trkpt><trkpt lat="59.0708210506" lon="30.0175608136"><ele>90.47</ele><time>2026-04-26T09:24:33Z</time></trkpt><trkpt lat="59.0708329529" lon="30.0177393481"><ele>90.65</ele><time>2026-04-26T09:24:45Z</time></trkpt><trkpt lat="59.0708730184" lon="30.0180690084"><ele>89.95</ele><time>2026-04-26T09:25:07Z</time></trkpt><trkpt lat="59.0709956456" lon="30.0183875207"><ele>85.63</ele><time>2026-04-26T09:25:27Z</time></trkpt><trkpt lat="59.0710169356" lon="30.0186739303"><ele>81.61</ele><time>2026-04-26T09:25:47Z</time></trkpt><trkpt lat="59.0710026864" lon="30.0188222062"><ele>79.11</ele><time>2026-04-26T09:26:14Z</time></trkpt><trkpt lat="59.0710682329" lon="30.0187997427"><ele>76.89</ele><time>2026-04-26T09:26:43Z</time></trkpt><trkpt lat="59.0710518882" lon="30.0186995789"><ele>79.66</ele><time>2026-04-26T09:27:12Z</time></trkpt><trkpt lat="59.0710449312" lon="30.0186318532"><ele>79.58</ele><time>2026-04-26T09:27:39Z</time></trkpt><trkpt lat="59.0709400736" lon="30.0185643788"><ele>78.93</ele><time>2026-04-26T09:27:58Z</time></trkpt><trkpt lat="59.0707928035" lon="30.0184262451"><ele>79.15</ele><time>2026-04-26T09:28:16Z</time></trkpt><trkpt lat="59.0706151910" lon="30.0183347985"><ele>78.82</ele><time>2026-04-26T09:28:39Z</time></trkpt><trkpt lat="59.0705419332" lon="30.0181934796"><ele>78.48</ele><time>2026-04-26T09:28:55Z</time></trkpt><trkpt lat="59.0704814158" lon="30.0181959104"><ele>78.66</ele><time>2026-04-26T09:29:13Z</time></trkpt><trkpt lat="59.0704602096" lon="30.0181819126"><ele>78.46</ele><time>2026-04-26T09:29:19Z</time></trkpt><trkpt lat="59.0703442041" lon="30.0180686731"><ele>78.50</ele><time>2026-04-26T09:29:38Z</time></trkpt><trkpt lat="59.0703617223" lon="30.0181531627"><ele>77.90</ele><time>2026-04-26T09:29:50Z</time></trkpt><trkpt lat="59.0702763107" lon="30.0182925537"><ele>77.35</ele><time>2026-04-26T09:30:08Z</time></trkpt><trkpt lat="59.0702105127" lon="30.0181640591"><ele>76.39</ele><time>2026-04-26T09:30:24Z</time></trkpt><trkpt lat="59.0701179765" lon="30.0179749634"><ele>76.40</ele><time>2026-04-26T09:30:46Z</time></trkpt><trkpt lat="59.0700317267" lon="30.0179608818"><ele>76.59</ele><time>2026-04-26T09:31:03Z</time></trkpt><trkpt lat="59.0699193254" lon="30.0178310461"><ele>77.24</ele><time>2026-04-26T09:31:21Z</time></trkpt><trkpt lat="59.0698634181" lon="30.0177857839"><ele>75.42</ele><time>2026-04-26T09:31:39Z</time></trkpt><trkpt lat="59.0697593149" lon="30.0179105904"><ele>76.61</ele><time>2026-04-26T09:31:56Z</time></trkpt><trkpt lat="59.0697246138" lon="30.0179232471"><ele>77.05</ele><time>2026-04-26T09:32:24Z</time></trkpt><trkpt lat="59.0697351750" lon="30.0180170406"><ele>78.64</ele><time>2026-04-26T09:32:51Z</time></trkpt><trkpt lat="59.0697410423" lon="30.0178792421"><ele>77.87</ele><time>2026-04-26T09:33:22Z</time></trkpt><trkpt lat="59.0697178245" lon="30.0177453831"><ele>78.32</ele><time>2026-04-26T09:33:41Z</time></trkpt><trkpt lat="59.0697241947" lon="30.0175726321"><ele>78.66</ele><time>2026-04-26T09:33:58Z</time></trkpt><trkpt lat="59.0698142163" lon="30.0173304789"><ele>78.56</ele><time>2026-04-26T09:34:14Z</time></trkpt><trkpt lat="59.0698125400" lon="30.0171464123"><ele>79.29</ele><time>2026-04-26T09:34:32Z</time></trkpt><trkpt lat="59.0697241947" lon="30.0168709829"><ele>77.68</ele><time>2026-04-26T09:34:53Z</time></trkpt><trkpt lat="59.0696289763" lon="30.0166255608"><ele>75.65</ele><time>2026-04-26T09:35:12Z</time></trkpt><trkpt lat="59.0696176607" lon="30.0165398140"><ele>76.22</ele><time>2026-04-26T09:35:19Z</time></trkpt><trkpt lat="59.0695898328" lon="30.0162037835"><ele>74.34</ele><time>2026-04-26T09:35:39Z</time></trkpt><trkpt lat="59.0695883241" lon="30.0161780510"><ele>74.27</ele><time>2026-04-26T09:35:43Z</time></trkpt><trkpt lat="59.0695451573" lon="30.0161090679"><ele>74.83</ele><time>2026-04-26T09:36:14Z</time></trkpt><trkpt lat="59.0696485899" lon="30.0161340460"><ele>77.23</ele><time>2026-04-26T09:36:43Z</time></trkpt><trkpt lat="59.0696069319" lon="30.0162939727"><ele>78.35</ele><time>2026-04-26T09:37:12Z</time></trkpt><trkpt lat="59.0695824567" lon="30.0163394026"><ele>80.83</ele><time>2026-04-26T09:37:44Z</time></trkpt><trkpt lat="59.0695475880" lon="30.0163563341"><ele>84.98</ele><time>2026-04-26T09:38:16Z</time></trkpt><trkpt lat="59.0694926027" lon="30.0163422525"><ele>86.32</ele><time>2026-04-26T09:38:54Z</time></trkpt><trkpt lat="59.0694757551" lon="30.0162965711"><ele>86.36</ele><time>2026-04-26T09:39:12Z</time></trkpt><trkpt lat="59.0695565566" lon="30.0163311884"><ele>87.59</ele><time>2026-04-26T09:39:42Z</time></trkpt><trkpt lat="59.0695705544" lon="30.0162881892"><ele>86.94</ele><time>2026-04-26T09:40:06Z</time></trkpt><trkpt lat="59.0695507731" lon="30.0162130874"><ele>86.63</ele><time>2026-04-26T09:40:27Z</time></trkpt><trkpt lat="59.0695362724" lon="30.0161423441"><ele>89.74</ele><time>2026-04-26T09:40:51Z</time></trkpt><trkpt lat="59.0695585683" lon="30.0159734488"><ele>89.95</ele><time>2026-04-26T09:41:23Z</time></trkpt><trkpt lat="59.0695770923" lon="30.0156173017"><ele>88.45</ele><time>2026-04-26T09:41:44Z</time></trkpt><trkpt lat="59.0695715602" lon="30.0154080894"><ele>86.95</ele><time>2026-04-26T09:42:03Z</time></trkpt><trkpt lat="59.0694993921" lon="30.0150681194"><ele>86.39</ele><time>2026-04-26T09:42:24Z</time></trkpt><trkpt lat="59.0694673732" lon="30.0147431530"><ele>85.24</ele><time>2026-04-26T09:42:43Z</time></trkpt><trkpt lat="59.0694271401" lon="30.0144062005"><ele>82.47</ele><time>2026-04-26T09:43:03Z</time></trkpt><trkpt lat="59.0693731606" lon="30.0142927933"><ele>81.55</ele><time>2026-04-26T09:43:25Z</time></trkpt><trkpt lat="59.0693247132" lon="30.0142015982"><ele>80.98</ele><time>2026-04-26T09:44:02Z</time></trkpt><trkpt lat="59.0693590790" lon="30.0142246485"><ele>79.86</ele><time>2026-04-26T09:44:28Z</time></trkpt><trkpt lat="59.0693509486" lon="30.0141500495"><ele>79.41</ele><time>2026-04-26T09:45:10Z</time></trkpt><trkpt lat="59.0693817101" lon="30.0139762927"><ele>79.94</ele><time>2026-04-26T09:45:26Z</time></trkpt><trkpt lat="59.0694137290" lon="30.0138324592"><ele>80.68</ele><time>2026-04-26T09:45:41Z</time></trkpt><trkpt lat="59.0694370307" lon="30.0135950837"><ele>80.33</ele><time>2026-04-26T09:45:58Z</time></trkpt><trkpt lat="59.0694643557" lon="30.0134199858"><ele>79.92</ele><time>2026-04-26T09:46:11Z</time></trkpt><trkpt lat="59.0695403796" lon="30.0132132042"><ele>79.08</ele><time>2026-04-26T09:46:28Z</time></trkpt><trkpt lat="59.0695353504" lon="30.0130215101"><ele>81.08</ele><time>2026-04-26T09:46:45Z</time></trkpt><trkpt lat="59.0694418922" lon="30.0127223600"><ele>81.96</ele><time>2026-04-26T09:47:05Z</time></trkpt><trkpt lat="59.0693331789" lon="30.0125822145"><ele>80.49</ele><time>2026-04-26T09:47:23Z</time></trkpt><trkpt lat="59.0693338495" lon="30.0124707352"><ele>78.28</ele><time>2026-04-26T09:47:45Z</time></trkpt><trkpt lat="59.0692467615" lon="30.0124451704"><ele>80.51</ele><time>2026-04-26T09:48:09Z</time></trkpt><trkpt lat="59.0692134853" lon="30.0125298277"><ele>82.86</ele><time>2026-04-26T09:48:42Z</time></trkpt><trkpt lat="59.0692305006" lon="30.0125118066"><ele>83.04</ele><time>2026-04-26T09:48:48Z</time></trkpt><trkpt lat="59.0692020021" lon="30.0122435857"><ele>83.50</ele><time>2026-04-26T09:49:05Z</time></trkpt><trkpt lat="59.0691866633" lon="30.0120792165"><ele>83.08</ele><time>2026-04-26T09:49:20Z</time></trkpt><trkpt lat="59.0692100488" lon="30.0117335469"><ele>82.87</ele><time>2026-04-26T09:49:40Z</time></trkpt><trkpt lat="59.0691836458" lon="30.0114135258"><ele>82.46</ele><time>2026-04-26T09:49:59Z</time></trkpt><trkpt lat="59.0691770241" lon="30.0112338178"><ele>81.30</ele><time>2026-04-26T09:50:17Z</time></trkpt><trkpt lat="59.0691550635" lon="30.0110024773"><ele>80.67</ele><time>2026-04-26T09:50:32Z</time></trkpt><trkpt lat="59.0691177640" lon="30.0107814465"><ele>78.60</ele><time>2026-04-26T09:50:51Z</time></trkpt><trkpt lat="59.0691248886" lon="30.0106847193"><ele>78.54</ele><time>2026-04-26T09:51:15Z</time></trkpt><trkpt lat="59.0691027604" lon="30.0106621720"><ele>79.54</ele><time>2026-04-26T09:51:25Z</time></trkpt><trkpt lat="59.0691570751" lon="30.0106339250"><ele>80.22</ele><time>2026-04-26T09:51:56Z</time></trkpt><trkpt lat="59.0690972283" lon="30.0105014071"><ele>81.60</ele><time>2026-04-26T09:52:24Z</time></trkpt><trkpt lat="59.0690698195" lon="30.0103550591"><ele>81.71</ele><time>2026-04-26T09:52:41Z</time></trkpt><trkpt lat="59.0690647904" lon="30.0102641992"><ele>81.77</ele><time>2026-04-26T09:52:53Z</time></trkpt><trkpt lat="59.0690813027" lon="30.0101404823"><ele>82.30</ele><time>2026-04-26T09:53:12Z</time></trkpt><trkpt lat="59.0691309236" lon="30.0098877680"><ele>81.52</ele><time>2026-04-26T09:53:30Z</time></trkpt><trkpt lat="59.0691223741" lon="30.0097978301"><ele>80.96</ele><time>2026-04-26T09:53:33Z</time></trkpt><trkpt lat="59.0691167582" lon="30.0096247438"><ele>80.65</ele><time>2026-04-26T09:53:43Z</time></trkpt><trkpt lat="59.0690873377" lon="30.0092321355"><ele>81.72</ele><time>2026-04-26T09:54:03Z</time></trkpt><trkpt lat="59.0689836536" lon="30.0090484880"><ele>81.84</ele><time>2026-04-26T09:54:21Z</time></trkpt><trkpt lat="59.0689410735" lon="30.0088947639"><ele>80.95</ele><time>2026-04-26T09:54:39Z</time></trkpt><trkpt lat="59.0689431690" lon="30.0088027306"><ele>82.46</ele><time>2026-04-26T09:55:08Z</time></trkpt><trkpt lat="59.0688937157" lon="30.0088190753"><ele>82.29</ele><time>2026-04-26T09:55:39Z</time></trkpt><trkpt lat="59.0688937157" lon="30.0086770859"><ele>82.17</ele><time>2026-04-26T09:55:51Z</time></trkpt><trkpt lat="59.0688596852" lon="30.0085063465"><ele>81.92</ele><time>2026-04-26T09:56:07Z</time></trkpt><trkpt lat="59.0688353777" lon="30.0082210265"><ele>81.23</ele><time>2026-04-26T09:56:27Z</time></trkpt><trkpt lat="59.0688461903" lon="30.0080884248"><ele>80.39</ele><time>2026-04-26T09:56:47Z</time></trkpt><trkpt lat="59.0688071307" lon="30.0078872591"><ele>80.07</ele><time>2026-04-26T09:57:06Z</time></trkpt><trkpt lat="59.0688119084" lon="30.0076476205"><ele>80.24</ele><time>2026-04-26T09:57:25Z</time></trkpt><trkpt lat="59.0688946377" lon="30.0074204709"><ele>79.74</ele><time>2026-04-26T09:57:43Z</time></trkpt><trkpt lat="59.0689362958" lon="30.0073742028"><ele>79.39</ele><time>2026-04-26T09:58:09Z</time></trkpt><trkpt lat="59.0689735953" lon="30.0072826724"><ele>79.92</ele><time>2026-04-26T09:58:35Z</time></trkpt><trkpt lat="59.0689042769" lon="30.0071480591"><ele>79.75</ele><time>2026-04-26T09:58:49Z</time></trkpt><trkpt lat="59.0687841643" lon="30.0069320574"><ele>79.00</ele><time>2026-04-26T09:59:05Z</time></trkpt><trkpt lat="59.0687724296" lon="30.0065880641"><ele>79.53</ele><time>2026-04-26T09:59:23Z</time></trkpt><trkpt lat="59.0687503852" lon="30.0064257905"><ele>82.28</ele><time>2026-04-26T09:59:45Z</time></trkpt><trkpt lat="59.0687746927" lon="30.0064271316"><ele>84.95</ele><time>2026-04-26T10:00:15Z</time></trkpt><trkpt lat="59.0687139239" lon="30.0064790994"><ele>84.65</ele><time>2026-04-26T10:00:33Z</time></trkpt><trkpt lat="59.0685725212" lon="30.0065086037"><ele>83.89</ele><time>2026-04-26T10:00:50Z</time></trkpt><trkpt lat="59.0684948210" lon="30.0065682828"><ele>83.57</ele><time>2026-04-26T10:00:58Z</time></trkpt><trkpt lat="59.0683493949" lon="30.0066619925"><ele>82.62</ele><time>2026-04-26T10:01:19Z</time></trkpt><trkpt lat="59.0683571063" lon="30.0068018865"><ele>82.12</ele><time>2026-04-26T10:01:34Z</time></trkpt><trkpt lat="59.0682540089" lon="30.0069540180"><ele>81.96</ele><time>2026-04-26T10:01:55Z</time></trkpt><trkpt lat="59.0681487322" lon="30.0069353264"><ele>81.48</ele><time>2026-04-26T10:02:15Z</time></trkpt><trkpt lat="59.0680190641" lon="30.0069339015"><ele>81.59</ele><time>2026-04-26T10:02:35Z</time></trkpt><trkpt lat="59.0678438824" lon="30.0068940036"><ele>79.52</ele><time>2026-04-26T10:02:57Z</time></trkpt><trkpt lat="59.0677905735" lon="30.0068917405"><ele>79.28</ele><time>2026-04-26T10:03:04Z</time></trkpt><trkpt lat="59.0676723886" lon="30.0068898965"><ele>78.69</ele><time>2026-04-26T10:03:22Z</time></trkpt><trkpt lat="59.0676188283" lon="30.0070185587"><ele>80.57</ele><time>2026-04-26T10:03:52Z</time></trkpt><trkpt lat="59.0676697902" lon="30.0069406908"><ele>82.61</ele><time>2026-04-26T10:04:21Z</time></trkpt><trkpt lat="59.0676798485" lon="30.0069733802"><ele>82.67</ele><time>2026-04-26T10:04:29Z</time></trkpt><trkpt lat="59.0677189920" lon="30.0070703588"><ele>83.62</ele><time>2026-04-26T10:04:55Z</time></trkpt><trkpt lat="59.0677090175" lon="30.0072695967"><ele>83.13</ele><time>2026-04-26T10:05:13Z</time></trkpt><trkpt lat="59.0676927567" lon="30.0074198004"><ele>82.51</ele><time>2026-04-26T10:05:25Z</time></trkpt><trkpt lat="59.0676718857" lon="30.0078096427"><ele>81.97</ele><time>2026-04-26T10:05:43Z</time></trkpt><trkpt lat="59.0676073451" lon="30.0081109721"><ele>81.24</ele><time>2026-04-26T10:05:55Z</time></trkpt><trkpt lat="59.0676566307" lon="30.0084758364"><ele>81.19</ele><time>2026-04-26T10:06:17Z</time></trkpt><trkpt lat="59.0676943492" lon="30.0085789338"><ele>81.31</ele><time>2026-04-26T10:06:24Z</time></trkpt><trkpt lat="59.0677690320" lon="30.0087915827"><ele>81.91</ele><time>2026-04-26T10:06:43Z</time></trkpt><trkpt lat="59.0678410325" lon="30.0090073328"><ele>84.67</ele><time>2026-04-26T10:07:07Z</time></trkpt><trkpt lat="59.0679849498" lon="30.0090893917"><ele>84.01</ele><time>2026-04-26T10:07:29Z</time></trkpt><trkpt lat="59.0679904819" lon="30.0090925768"><ele>83.82</ele><time>2026-04-26T10:07:30Z</time></trkpt><trkpt lat="59.0680532623" lon="30.0090748910"><ele>83.22</ele><time>2026-04-26T10:07:57Z</time></trkpt><trkpt lat="59.0680999495" lon="30.0091028027"><ele>84.51</ele><time>2026-04-26T10:08:30Z</time></trkpt><trkpt lat="59.0681363270" lon="30.0092190597"><ele>84.00</ele><time>2026-04-26T10:08:57Z</time></trkpt><trkpt lat="59.0681061521" lon="30.0093246717"><ele>85.12</ele><time>2026-04-26T10:09:25Z</time></trkpt><trkpt lat="59.0681007039" lon="30.0094618835"><ele>84.97</ele><time>2026-04-26T10:09:42Z</time></trkpt><trkpt lat="59.0680961777" lon="30.0095420983"><ele>84.77</ele><time>2026-04-26T10:09:50Z</time></trkpt><trkpt lat="59.0681154560" lon="30.0097917952"><ele>84.92</ele><time>2026-04-26T10:10:10Z</time></trkpt><trkpt lat="59.0680484008" lon="30.0100883469"><ele>85.29</ele><time>2026-04-26T10:10:22Z</time></trkpt><trkpt lat="59.0680308826" lon="30.0103178434"><ele>85.70</ele><time>2026-04-26T10:10:37Z</time></trkpt><trkpt lat="59.0680334810" lon="30.0107984617"><ele>84.16</ele><time>2026-04-26T10:11:02Z</time></trkpt><trkpt lat="59.0680463891" lon="30.0110500026"><ele>82.44</ele><time>2026-04-26T10:11:24Z</time></trkpt><trkpt lat="59.0680474788" lon="30.0112753920"><ele>81.43</ele><time>2026-04-26T10:11:54Z</time></trkpt><trkpt lat="59.0680317208" lon="30.0111938361"><ele>84.06</ele><time>2026-04-26T10:12:26Z</time></trkpt><trkpt lat="59.0680473112" lon="30.0111756474"><ele>84.57</ele><time>2026-04-26T10:12:55Z</time></trkpt><trkpt lat="59.0680464730" lon="30.0114468019"><ele>84.34</ele><time>2026-04-26T10:13:15Z</time></trkpt><trkpt lat="59.0680183936" lon="30.0117005222"><ele>84.27</ele><time>2026-04-26T10:13:27Z</time></trkpt><trkpt lat="59.0680922382" lon="30.0120231416"><ele>83.67</ele><time>2026-04-26T10:13:47Z</time></trkpt><trkpt lat="59.0681737103" lon="30.0121608563"><ele>79.85</ele><time>2026-04-26T10:13:57Z</time></trkpt><trkpt lat="59.0682167094" lon="30.0124356151"><ele>78.50</ele><time>2026-04-26T10:14:19Z</time></trkpt><trkpt lat="59.0682063159" lon="30.0126801152"><ele>77.72</ele><time>2026-04-26T10:14:39Z</time></trkpt><trkpt lat="59.0682017058" lon="30.0128962006"><ele>76.75</ele><time>2026-04-26T10:15:00Z</time></trkpt><trkpt lat="59.0682722814" lon="30.0131249428"><ele>73.24</ele><time>2026-04-26T10:15:21Z</time></trkpt><trkpt lat="59.0682660788" lon="30.0132174790"><ele>74.93</ele><time>2026-04-26T10:15:45Z</time></trkpt><trkpt lat="59.0682472195" lon="30.0133292098"><ele>75.27</ele><time>2026-04-26T10:16:21Z</time></trkpt><trkpt lat="59.0682549309" lon="30.0134912319"><ele>75.18</ele><time>2026-04-26T10:16:48Z</time></trkpt><trkpt lat="59.0683084074" lon="30.0136608817"><ele>75.08</ele><time>2026-04-26T10:17:06Z</time></trkpt><trkpt lat="59.0683157835" lon="30.0137857720"><ele>75.03</ele><time>2026-04-26T10:17:14Z</time></trkpt><trkpt lat="59.0683037974" lon="30.0140583515"><ele>74.74</ele><time>2026-04-26T10:17:29Z</time></trkpt><trkpt lat="59.0682310425" lon="30.0144306757"><ele>75.09</ele><time>2026-04-26T10:17:49Z</time></trkpt><trkpt lat="59.0682120156" lon="30.0145338569"><ele>74.66</ele><time>2026-04-26T10:18:04Z</time></trkpt><trkpt lat="59.0681706090" lon="30.0146563165"><ele>74.35</ele><time>2026-04-26T10:18:14Z</time></trkpt><trkpt lat="59.0681389254" lon="30.0148555543"><ele>75.76</ele><time>2026-04-26T10:18:35Z</time></trkpt><trkpt lat="59.0681162942" lon="30.0148949493"><ele>74.75</ele><time>2026-04-26T10:19:11Z</time></trkpt><trkpt lat="59.0681104269" lon="30.0149185024"><ele>74.88</ele><time>2026-04-26T10:19:19Z</time></trkpt><trkpt lat="59.0681065712" lon="30.0150932651"><ele>75.90</ele><time>2026-04-26T10:19:44Z</time></trkpt><trkpt lat="59.0681602154" lon="30.0151614938"><ele>75.78</ele><time>2026-04-26T10:19:54Z</time></trkpt><trkpt lat="59.0683074854" lon="30.0152433850"><ele>74.73</ele><time>2026-04-26T10:20:15Z</time></trkpt><trkpt lat="59.0684614610" lon="30.0153140444"><ele>72.17</ele><time>2026-04-26T10:20:36Z</time></trkpt><trkpt lat="59.0684700944" lon="30.0153080095"><ele>71.77</ele><time>2026-04-26T10:20:38Z</time></trkpt><trkpt lat="59.0685259178" lon="30.0153784174"><ele>71.54</ele><time>2026-04-26T10:21:00Z</time></trkpt><trkpt lat="59.0685666539" lon="30.0152771641"><ele>72.17</ele><time>2026-04-26T10:21:28Z</time></trkpt><trkpt lat="59.0686099045" lon="30.0152368471"><ele>72.77</ele><time>2026-04-26T10:22:06Z</time></trkpt><trkpt lat="59.0686110780" lon="30.0153696164"><ele>74.16</ele><time>2026-04-26T10:22:33Z</time></trkpt><trkpt lat="59.0686238185" lon="30.0155842770"><ele>75.59</ele><time>2026-04-26T10:22:54Z</time></trkpt><trkpt lat="59.0686711762" lon="30.0157815870"><ele>74.95</ele><time>2026-04-26T10:23:11Z</time></trkpt><trkpt lat="59.0686735231" lon="30.0158390868"><ele>74.94</ele><time>2026-04-26T10:23:15Z</time></trkpt><trkpt lat="59.0686073899" lon="30.0161056314"><ele>74.76</ele><time>2026-04-26T10:23:27Z</time></trkpt><trkpt lat="59.0686037019" lon="30.0164781231"><ele>75.32</ele><time>2026-04-26T10:23:45Z</time></trkpt><trkpt lat="59.0685895365" lon="30.0168921892"><ele>74.30</ele><time>2026-04-26T10:24:08Z</time></trkpt><trkpt lat="59.0686189570" lon="30.0171449035"><ele>74.45</ele><time>2026-04-26T10:24:28Z</time></trkpt><trkpt lat="59.0686811507" lon="30.0173724722"><ele>74.03</ele><time>2026-04-26T10:24:48Z</time></trkpt><trkpt lat="59.0686723497" lon="30.0176285394"><ele>72.35</ele><time>2026-04-26T10:25:07Z</time></trkpt><trkpt lat="59.0686553344" lon="30.0178105943"><ele>73.42</ele><time>2026-04-26T10:25:26Z</time></trkpt><trkpt lat="59.0686257463" lon="30.0178683456"><ele>74.56</ele><time>2026-04-26T10:25:46Z</time></trkpt><trkpt lat="59.0686021093" lon="30.0178535935"><ele>73.35</ele><time>2026-04-26T10:26:17Z</time></trkpt><trkpt lat="59.0685198829" lon="30.0177907292"><ele>73.33</ele><time>2026-04-26T10:26:48Z</time></trkpt><trkpt lat="59.0684302803" lon="30.0176527631"><ele>73.89</ele><time>2026-04-26T10:27:08Z</time></trkpt><trkpt lat="59.0682821721" lon="30.0176596362"><ele>73.88</ele><time>2026-04-26T10:27:26Z</time></trkpt><trkpt lat="59.0682337247" lon="30.0177088380"><ele>74.54</ele><time>2026-04-26T10:27:46Z</time></trkpt><trkpt lat="59.0682235826" lon="30.0177250989"><ele>74.92</ele><time>2026-04-26T10:27:54Z</time></trkpt><trkpt lat="59.0681666695" lon="30.0177789945"><ele>73.67</ele><time>2026-04-26T10:28:25Z</time></trkpt><trkpt lat="59.0681834333" lon="30.0175415352"><ele>74.96</ele><time>2026-04-26T10:28:45Z</time></trkpt><trkpt lat="59.0681282803" lon="30.0173052493"><ele>73.47</ele><time>2026-04-26T10:29:03Z</time></trkpt><trkpt lat="59.0680055693" lon="30.0172199216"><ele>73.59</ele><time>2026-04-26T10:29:20Z</time></trkpt><trkpt lat="59.0679199900" lon="30.0171239488"><ele>73.46</ele><time>2026-04-26T10:29:38Z</time></trkpt><trkpt lat="59.0678169765" lon="30.0170311611"><ele>72.73</ele><time>2026-04-26T10:29:58Z</time></trkpt><trkpt lat="59.0676781721" lon="30.0170097034"><ele>73.26</ele><time>2026-04-26T10:30:16Z</time></trkpt><trkpt lat="59.0675518569" lon="30.0170345139"><ele>76.25</ele><time>2026-04-26T10:30:34Z</time></trkpt><trkpt lat="59.0675066784" lon="30.0170727354"><ele>77.45</ele><time>2026-04-26T10:30:55Z</time></trkpt><trkpt lat="59.0674904175" lon="30.0171254575"><ele>80.40</ele><time>2026-04-26T10:31:30Z</time></trkpt><trkpt lat="59.0675177425" lon="30.0170159061"><ele>80.79</ele><time>2026-04-26T10:31:56Z</time></trkpt><trkpt lat="59.0675118752" lon="30.0169471744"><ele>80.64</ele><time>2026-04-26T10:32:05Z</time></trkpt><trkpt lat="59.0675017331" lon="30.0167706516"><ele>80.60</ele><time>2026-04-26T10:32:28Z</time></trkpt><trkpt lat="59.0674718935" lon="30.0163982436"><ele>80.87</ele><time>2026-04-26T10:32:45Z</time></trkpt><trkpt lat="59.0673560556" lon="30.0161471218"><ele>79.94</ele><time>2026-04-26T10:33:05Z</time></trkpt><trkpt lat="59.0672438219" lon="30.0160254166"><ele>78.08</ele><time>2026-04-26T10:33:22Z</time></trkpt><trkpt lat="59.0672302432" lon="30.0157895498"><ele>72.75</ele><time>2026-04-26T10:33:40Z</time></trkpt><trkpt lat="59.0671481844" lon="30.0154429581"><ele>68.52</ele><time>2026-04-26T10:33:59Z</time></trkpt><trkpt lat="59.0671386290" lon="30.0152295548"><ele>65.19</ele><time>2026-04-26T10:34:18Z</time></trkpt><trkpt lat="59.0671364497" lon="30.0152180716"><ele>65.42</ele><time>2026-04-26T10:34:19Z</time></trkpt><trkpt lat="59.0670972224" lon="30.0151819456"><ele>72.32</ele><time>2026-04-26T10:34:48Z</time></trkpt><trkpt lat="59.0670918580" lon="30.0151371025"><ele>73.60</ele><time>2026-04-26T10:35:24Z</time></trkpt><trkpt lat="59.0670642816" lon="30.0151806884"><ele>79.25</ele><time>2026-04-26T10:35:48Z</time></trkpt><trkpt lat="59.0670333523" lon="30.0151829515"><ele>79.51</ele><time>2026-04-26T10:36:25Z</time></trkpt><trkpt lat="59.0669999924" lon="30.0151062571"><ele>80.68</ele><time>2026-04-26T10:37:02Z</time></trkpt><trkpt lat="59.0670446679" lon="30.0151433051"><ele>80.81</ele><time>2026-04-26T10:37:24Z</time></trkpt><trkpt lat="59.0670222044" lon="30.0151015632"><ele>84.55</ele><time>2026-04-26T10:37:51Z</time></trkpt><trkpt lat="59.0669129044" lon="30.0149701349"><ele>83.86</ele><time>2026-04-26T10:38:15Z</time></trkpt><trkpt lat="59.0669010021" lon="30.0149514433"><ele>83.68</ele><time>2026-04-26T10:38:18Z</time></trkpt><trkpt lat="59.0668070409" lon="30.0148365274"><ele>83.48</ele><time>2026-04-26T10:38:45Z</time></trkpt><trkpt lat="59.0667768661" lon="30.0146610942"><ele>82.95</ele><time>2026-04-26T10:39:04Z</time></trkpt><trkpt lat="59.0667889360" lon="30.0144555699"><ele>81.73</ele><time>2026-04-26T10:39:20Z</time></trkpt><trkpt lat="59.0667818952" lon="30.0142525602"><ele>81.32</ele><time>2026-04-26T10:39:37Z</time></trkpt><trkpt lat="59.0667880140" lon="30.0141611975"><ele>81.00</ele><time>2026-04-26T10:39:57Z</time></trkpt><trkpt lat="59.0667959768" lon="30.0140340440"><ele>80.87</ele><time>2026-04-26T10:40:13Z</time></trkpt><trkpt lat="59.0668035205" lon="30.0137476344"><ele>80.53</ele><time>2026-04-26T10:40:34Z</time></trkpt><trkpt lat="59.0667730104" lon="30.0135199819"><ele>81.00</ele><time>2026-04-26T10:40:58Z</time></trkpt><trkpt lat="59.0668153390" lon="30.0134485681"><ele>80.90</ele><time>2026-04-26T10:41:16Z</time></trkpt><trkpt lat="59.0668636188" lon="30.0131453108"><ele>79.88</ele><time>2026-04-26T10:41:38Z</time></trkpt><trkpt lat="59.0668605175" lon="30.0129190832"><ele>78.48</ele><time>2026-04-26T10:41:49Z</time></trkpt><trkpt lat="59.0668324381" lon="30.0124900974"><ele>74.35</ele><time>2026-04-26T10:42:08Z</time></trkpt><trkpt lat="59.0668529738" lon="30.0122079626"><ele>71.40</ele><time>2026-04-26T10:42:25Z</time></trkpt><trkpt lat="59.0668471064" lon="30.0120622851"><ele>70.84</ele><time>2026-04-26T10:42:45Z</time></trkpt><trkpt lat="59.0668063704" lon="30.0117049646"><ele>69.70</ele><time>2026-04-26T10:43:04Z</time></trkpt><trkpt lat="59.0667783748" lon="30.0114612188"><ele>70.15</ele><time>2026-04-26T10:43:24Z</time></trkpt><trkpt lat="59.0667062905" lon="30.0113187265"><ele>72.04</ele><time>2026-04-26T10:43:39Z</time></trkpt><trkpt lat="59.0666032769" lon="30.0111129507"><ele>72.63</ele><time>2026-04-26T10:43:59Z</time></trkpt><trkpt lat="59.0665822383" lon="30.0108785927"><ele>68.82</ele><time>2026-04-26T10:44:17Z</time></trkpt><trkpt lat="59.0666125808" lon="30.0106175803"><ele>67.91</ele><time>2026-04-26T10:44:36Z</time></trkpt><trkpt lat="59.0665827412" lon="30.0103620999"><ele>67.15</ele><time>2026-04-26T10:44:55Z</time></trkpt><trkpt lat="59.0665773768" lon="30.0102379639"><ele>68.81</ele><time>2026-04-26T10:45:12Z</time></trkpt><trkpt lat="59.0665085614" lon="30.0100263208"><ele>68.74</ele><time>2026-04-26T10:45:33Z</time></trkpt><trkpt lat="59.0664061345" lon="30.0097906217"><ele>69.03</ele><time>2026-04-26T10:45:51Z</time></trkpt><trkpt lat="59.0663682483" lon="30.0095063075"><ele>68.14</ele><time>2026-04-26T10:46:10Z</time></trkpt><trkpt lat="59.0663356427" lon="30.0092735421"><ele>68.09</ele><time>2026-04-26T10:46:30Z</time></trkpt><trkpt lat="59.0662358981" lon="30.0089852884"><ele>67.94</ele><time>2026-04-26T10:46:51Z</time></trkpt><trkpt lat="59.0662167873" lon="30.0088631641"><ele>68.74</ele><time>2026-04-26T10:47:10Z</time></trkpt><trkpt lat="59.0661752131" lon="30.0088324025"><ele>68.23</ele><time>2026-04-26T10:47:31Z</time></trkpt><trkpt lat="59.0660996083" lon="30.0086768344"><ele>68.31</ele><time>2026-04-26T10:47:51Z</time></trkpt><trkpt lat="59.0660443716" lon="30.0086057559"><ele>68.30</ele><time>2026-04-26T10:48:03Z</time></trkpt><trkpt lat="59.0659681801" lon="30.0084198453"><ele>67.57</ele><time>2026-04-26T10:48:20Z</time></trkpt><trkpt lat="59.0659366641" lon="30.0083592441"><ele>67.40</ele><time>2026-04-26T10:48:25Z</time></trkpt><trkpt lat="59.0658209100" lon="30.0082602538"><ele>69.15</ele><time>2026-04-26T10:48:45Z</time></trkpt><trkpt lat="59.0657289606" lon="30.0082914345"><ele>69.36</ele><time>2026-04-26T10:49:04Z</time></trkpt><trkpt lat="59.0657200757" lon="30.0082534645"><ele>70.63</ele><time>2026-04-26T10:49:29Z</time></trkpt><trkpt lat="59.0656916611" lon="30.0081884209"><ele>71.65</ele><time>2026-04-26T10:49:55Z</time></trkpt><trkpt lat="59.0656826086" lon="30.0082345214"><ele>74.98</ele><time>2026-04-26T10:50:28Z</time></trkpt><trkpt lat="59.0657083411" lon="30.0082145724"><ele>76.01</ele><time>2026-04-26T10:50:58Z</time></trkpt><trkpt lat="59.0656999592" lon="30.0082494412"><ele>76.67</ele><time>2026-04-26T10:51:28Z</time></trkpt><trkpt lat="59.0656862967" lon="30.0082206912"><ele>76.02</ele><time>2026-04-26T10:51:59Z</time></trkpt><trkpt lat="59.0657143760" lon="30.0081779435"><ele>75.10</ele><time>2026-04-26T10:52:26Z</time></trkpt><trkpt lat="59.0656845365" lon="30.0082356110"><ele>75.01</ele><time>2026-04-26T10:52:49Z</time></trkpt><trkpt lat="59.0656712092" lon="30.0082535483"><ele>75.13</ele><time>2026-04-26T10:52:53Z</time></trkpt><trkpt lat="59.0654717200" lon="30.0083215255"><ele>74.85</ele><time>2026-04-26T10:53:18Z</time></trkpt><trkpt lat="59.0654523578" lon="30.0083177537"><ele>74.77</ele><time>2026-04-26T10:53:21Z</time></trkpt><trkpt lat="59.0653253719" lon="30.0083584059"><ele>74.33</ele><time>2026-04-26T10:53:40Z</time></trkpt><trkpt lat="59.0652457438" lon="30.0084153190"><ele>73.73</ele><time>2026-04-26T10:53:50Z</time></trkpt><trkpt lat="59.0650697239" lon="30.0085765030"><ele>71.82</ele><time>2026-04-26T10:54:13Z</time></trkpt><trkpt lat="59.0650672093" lon="30.0085811969"><ele>71.71</ele><time>2026-04-26T10:54:15Z</time></trkpt><trkpt lat="59.0648228768" lon="30.0086812768"><ele>68.90</ele><time>2026-04-26T10:54:41Z</time></trkpt><trkpt lat="59.0646461025" lon="30.0087953545"><ele>66.15</ele><time>2026-04-26T10:55:00Z</time></trkpt><trkpt lat="59.0644721780" lon="30.0089488272"><ele>64.65</ele><time>2026-04-26T10:55:21Z</time></trkpt><trkpt lat="59.0642223135" lon="30.0092014577"><ele>62.26</ele><time>2026-04-26T10:55:41Z</time></trkpt><trkpt lat="59.0640379116" lon="30.0094306190"><ele>60.27</ele><time>2026-04-26T10:56:04Z</time></trkpt><trkpt lat="59.0639984328" lon="30.0094532501"><ele>60.40</ele><time>2026-04-26T10:56:09Z</time></trkpt><trkpt lat="59.0637984406" lon="30.0096330419"><ele>59.07</ele><time>2026-04-26T10:56:31Z</time></trkpt><trkpt lat="59.0635502525" lon="30.0098909531"><ele>58.28</ele><time>2026-04-26T10:56:54Z</time></trkpt><trkpt lat="59.0633074287" lon="30.0100830663"><ele>56.15</ele><time>2026-04-26T10:57:13Z</time></trkpt><trkpt lat="59.0632148925" lon="30.0102150813"><ele>58.63</ele><time>2026-04-26T10:57:34Z</time></trkpt><trkpt lat="59.0631248709" lon="30.0102934521"><ele>60.46</ele><time>2026-04-26T10:57:58Z</time></trkpt><trkpt lat="59.0629738290" lon="30.0104387943"><ele>62.35</ele><time>2026-04-26T10:58:23Z</time></trkpt><trkpt lat="59.0628122259" lon="30.0106054265"><ele>62.81</ele><time>2026-04-26T10:58:44Z</time></trkpt><trkpt lat="59.0626509581" lon="30.0107871462"><ele>63.45</ele><time>2026-04-26T10:58:57Z</time></trkpt><trkpt lat="59.0624993294" lon="30.0109758228"><ele>62.64</ele><time>2026-04-26T10:59:15Z</time></trkpt><trkpt lat="59.0623958129" lon="30.0110638328"><ele>62.08</ele><time>2026-04-26T10:59:27Z</time></trkpt><trkpt lat="59.0621313639" lon="30.0112738833"><ele>64.34</ele><time>2026-04-26T10:59:45Z</time></trkpt><trkpt lat="59.0621023625" lon="30.0113087520"><ele>65.08</ele><time>2026-04-26T10:59:48Z</time></trkpt><trkpt lat="59.0620359778" lon="30.0113569479"><ele>70.67</ele><time>2026-04-26T11:00:14Z</time></trkpt></trkseg></trk></gpx>